Time;durP1;ratioP1;P1;durP2;ratioP2;P2;SDS_P1;SDS_P2;PMS_P1;PMS_P2;Temp;Humidity;BMP_temperature;BMP_pressure;BME280_temperature;BME280_humidity;BME280_pressure;Samples;Min_cycle;Max_cycle;Signal;HPM_P1;HPM_P2
2023/06/13 00:01:50;;;;;;;14.18;2.95;;;34.10;35.10;;;;;;5082275;28;20545;-59
2023/06/13 00:04:23;;;;;;;12.50;3.05;;;34.00;34.90;;;;;;5075529;28;20483;-60
2023/06/13 00:06:50;;;;;;;15.80;2.95;;;34.00;34.80;;;;;;5081232;28;20055;-60
2023/06/13 00:09:17;;;;;;;12.85;3.03;;;33.90;34.50;;;;;;5079977;28;20067;-61
2023/06/13 00:11:45;;;;;;;12.50;3.13;;;33.80;35.30;;;;;;5076351;28;20115;-59
2023/06/13 00:14:12;;;;;;;17.25;2.90;;;33.70;34.80;;;;;;5077208;28;20052;-60
2023/06/13 00:16:39;;;;;;;14.82;3.22;;;33.80;35.70;;;;;;5082143;28;20072;-59
2023/06/13 00:19:06;;;;;;;12.73;3.08;;;33.80;35.40;;;;;;5076024;28;20049;-58
2023/06/13 00:21:32;;;;;;;18.80;2.90;;;33.70;34.40;;;;;;5084698;28;20071;-56
2023/06/13 00:23:59;;;;;;;14.80;3.17;;;33.70;35.40;;;;;;5077360;28;20062;-58
2023/06/13 00:26:25;;;;;;;17.50;2.60;;;33.60;35.20;;;;;;5077803;28;20114;-59
2023/06/13 00:28:52;;;;;;;6.65;2.72;;;33.50;35.30;;;;;;5083542;28;20062;-59
2023/06/13 00:31:19;;;;;;;11.50;2.78;;;33.60;36.00;;;;;;5075323;28;20056;-58
2023/06/13 00:33:45;;;;;;;11.73;2.88;;;33.60;35.00;;;;;;5081665;28;20158;-56
2023/06/13 00:36:16;;;;;;;22.00;3.47;;;33.60;34.70;;;;;;5079412;28;20057;-59
2023/06/13 00:38:43;;;;;;;15.93;3.15;;;33.60;35.00;;;;;;5077667;28;20142;-57
2023/06/13 00:41:10;;;;;;;21.10;11.18;;;33.40;35.10;;;;;;5082284;28;20056;-60
2023/06/13 00:43:36;;;;;;;13.00;3.03;;;33.40;36.00;;;;;;5083050;28;20041;-58
2023/06/13 00:46:03;;;;;;;14.00;2.92;;;33.40;35.70;;;;;;5086930;28;20581;-56
2023/06/13 00:48:30;;;;;;;12.75;2.90;;;33.40;35.70;;;;;;5074002;28;20182;-60
2023/06/13 00:50:57;;;;;;;13.73;2.83;;;33.40;35.20;;;;;;5078116;28;20090;-60
2023/06/13 00:53:23;;;;;;;13.85;3.10;;;33.40;35.60;;;;;;5075665;28;20066;-57
2023/06/13 00:55:50;;;;;;;13.35;3.00;;;33.40;34.70;;;;;;5082942;28;20065;-59
2023/06/13 00:58:17;;;;;;;13.05;2.95;;;33.30;34.80;;;;;;5079812;28;20065;-57
2023/06/13 01:00:44;;;;;;;4.75;2.15;;;33.40;34.40;;;;;;5081783;28;20070;-56
2023/06/13 01:03:15;;;;;;;5.40;1.80;;;33.40;33.70;;;;;;5077167;28;20083;-57
2023/06/13 01:05:43;;;;;;;9.85;1.65;;;33.30;33.40;;;;;;5078617;28;20445;-58
2023/06/13 01:08:20;;;;;;;10.27;1.80;;;33.30;33.70;;;;;;5081063;28;20136;-59
2023/06/13 01:10:52;;;;;;;8.23;1.95;;;33.20;33.80;;;;;;5080819;28;20122;-59
2023/06/13 01:13:35;;;;;;;8.02;2.08;;;33.20;33.20;;;;;;5079078;28;20181;-59
2023/06/13 01:16:29;;;;;;;31.67;2.70;;;33.20;33.50;;;;;;5080868;28;20449;-59
2023/06/13 01:18:58;;;;;;;15.20;2.50;;;33.20;33.90;;;;;;5075069;28;20061;-54
2023/06/13 01:21:27;;;;;;;65.88;5.25;;;33.10;33.60;;;;;;5074625;28;20083;-58
2023/06/13 01:24:08;;;;;;;18.85;2.63;;;33.00;34.70;;;;;;5081230;28;20051;-56
2023/06/13 01:26:38;;;;;;;58.22;5.18;;;33.00;34.30;;;;;;5077922;28;20057;-54
2023/06/13 01:29:05;;;;;;;24.50;3.92;;;33.00;34.10;;;;;;5081081;28;20067;-61
2023/06/13 01:31:33;;;;;;;22.55;3.13;;;32.90;33.80;;;;;;5079173;28;20052;-56
2023/06/13 01:34:00;;;;;;;32.10;3.67;;;32.70;33.80;;;;;;5077804;28;20063;-60
2023/06/13 01:36:27;;;;;;;14.65;2.00;;;32.70;33.50;;;;;;5076405;28;20067;-59
2023/06/13 01:38:54;;;;;;;10.63;2.22;;;32.70;33.50;;;;;;5073249;28;20520;-59
2023/06/13 01:41:21;;;;;;;10.25;1.98;;;32.60;33.60;;;;;;5076640;28;20071;-57
2023/06/13 01:43:47;;;;;;;13.43;2.40;;;32.40;33.60;;;;;;5074831;28;20069;-61
2023/06/13 01:46:29;;;;;;;6.13;2.05;;;32.40;33.90;;;;;;5079435;28;20053;-57
2023/06/13 01:49:08;;;;;;;9.10;2.30;;;32.30;34.40;;;;;;5074775;28;20056;-60
2023/06/13 01:52:06;;;;;;;4.10;1.83;;;32.40;34.80;;;;;;5074769;28;20071;-61
2023/06/13 01:54:37;;;;;;;13.18;2.15;;;32.20;34.80;;;;;;5072739;28;20056;-58
2023/06/13 01:57:06;;;;;;;7.53;2.30;;;32.10;35.00;;;;;;5079896;28;20094;-61
2023/06/13 01:59:35;;;;;;;7.82;2.15;;;32.00;35.50;;;;;;5077946;28;20060;-58
2023/06/13 02:02:03;;;;;;;13.05;3.10;;;32.00;36.40;;;;;;5081004;28;20084;-55
2023/06/13 02:04:29;;;;;;;12.93;2.40;;;31.80;36.80;;;;;;5081252;28;20093;-58
2023/06/13 02:06:56;;;;;;;10.75;3.03;;;31.60;37.10;;;;;;5079001;28;20070;-57
2023/06/13 02:09:22;;;;;;;9.13;2.42;;;31.50;37.80;;;;;;5072838;28;20058;-56
2023/06/13 02:11:49;;;;;;;10.13;2.50;;;31.30;37.90;;;;;;5072516;28;20114;-55
2023/06/13 02:14:15;;;;;;;11.25;3.45;;;31.20;38.40;;;;;;5073428;28;20061;-58
2023/06/13 02:16:41;;;;;;;18.02;8.55;;;31.10;38.50;;;;;;5077990;28;20106;-57
2023/06/13 02:19:10;;;;;;;10.73;2.75;;;31.00;38.40;;;;;;5075356;28;20214;-57
2023/06/13 02:21:36;;;;;;;13.98;3.08;;;31.00;38.50;;;;;;5074261;28;20100;-58
2023/06/13 02:24:03;;;;;;;9.73;3.53;;;30.90;38.70;;;;;;5073845;28;20061;-60
2023/06/13 02:26:29;;;;;;;5.90;2.63;;;30.90;38.80;;;;;;5076356;28;20065;-57
2023/06/13 02:29:00;;;;;;;10.15;2.72;;;30.80;38.70;;;;;;5078568;28;20088;-56
2023/06/13 02:31:27;;;;;;;8.50;2.47;;;30.70;38.30;;;;;;5077596;28;20089;-57
2023/06/13 02:33:53;;;;;;;14.30;4.20;;;30.60;38.20;;;;;;5081143;28;20074;-60
2023/06/13 02:36:19;;;;;;;9.20;2.67;;;30.50;38.00;;;;;;5074451;28;20533;-59
2023/06/13 02:38:46;;;;;;;11.60;2.70;;;30.40;38.10;;;;;;5085753;28;20067;-61
2023/06/13 02:41:12;;;;;;;9.50;3.05;;;30.30;38.20;;;;;;5078447;28;20085;-60
2023/06/13 02:43:39;;;;;;;9.15;2.67;;;30.20;38.60;;;;;;5078736;28;20085;-59
2023/06/13 02:46:06;;;;;;;7.40;2.80;;;30.10;38.70;;;;;;5076517;28;20071;-60
2023/06/13 02:48:33;;;;;;;5.90;1.98;;;30.10;38.80;;;;;;5081861;28;20084;-59
2023/06/13 02:51:00;;;;;;;7.80;2.58;;;30.00;38.90;;;;;;5079530;28;20076;-62
2023/06/13 02:53:26;;;;;;;6.32;2.30;;;30.00;39.20;;;;;;5077792;28;20080;-62
2023/06/13 02:55:54;;;;;;;7.63;2.00;;;29.90;39.30;;;;;;5081018;28;20101;-61
2023/06/13 02:58:21;;;;;;;9.07;2.33;;;29.80;39.50;;;;;;5082083;28;20088;-62
2023/06/13 03:00:50;;;;;;;8.32;2.63;;;29.70;39.70;;;;;;5081335;28;20093;-60
2023/06/13 03:03:18;;;;;;;10.45;2.22;;;29.60;40.00;;;;;;5082222;28;20158;-59
2023/06/13 03:05:48;;;;;;;7.47;2.65;;;29.60;40.20;;;;;;5079148;28;20103;-60
2023/06/13 03:08:18;;;;;;;8.10;2.70;;;29.50;40.20;;;;;;5080375;28;20077;-59
2023/06/13 03:10:48;;;;;;;12.27;2.70;;;29.50;40.30;;;;;;5075326;28;20125;-63
2023/06/13 03:13:16;;;;;;;8.10;2.72;;;29.40;40.20;;;;;;5081124;28;20065;-58
2023/06/13 03:15:47;;;;;;;13.00;3.20;;;29.40;40.50;;;;;;5083897;28;20081;-60
2023/06/13 03:18:14;;;;;;;12.45;2.55;;;29.30;40.50;;;;;;5084202;28;20723;-60
2023/06/13 03:20:47;;;;;;;10.75;2.90;;;29.30;40.60;;;;;;5082795;28;20081;-54
2023/06/13 03:23:17;;;;;;;12.90;3.08;;;29.30;40.80;;;;;;5084224;28;20150;-63
2023/06/13 03:25:45;;;;;;;12.80;4.25;;;29.20;40.70;;;;;;5093542;28;20465;-61
2023/06/13 03:28:12;;;;;;;5.60;2.80;;;29.10;41.00;;;;;;5083017;28;20078;-59
2023/06/13 03:30:38;;;;;;;13.40;4.35;;;29.00;41.00;;;;;;5081107;28;20083;-61
2023/06/13 03:33:05;;;;;;;12.73;3.17;;;28.90;41.10;;;;;;5082445;28;20079;-62
2023/06/13 03:35:34;;;;;;;12.15;2.92;;;28.90;41.30;;;;;;5074331;28;20103;-62
2023/06/13 03:38:01;;;;;;;13.70;3.00;;;28.90;41.60;;;;;;5081860;28;20067;-60
2023/06/13 03:40:28;;;;;;;12.60;2.50;;;28.80;41.70;;;;;;5089332;28;20448;-63
2023/06/13 03:42:54;;;;;;;12.05;2.10;;;28.60;42.00;;;;;;5077195;28;20137;-62
2023/06/13 03:45:24;;;;;;;11.98;2.60;;;28.50;42.30;;;;;;5081092;28;20532;-60
2023/06/13 03:47:50;;;;;;;6.43;2.45;;;28.50;42.30;;;;;;5084633;28;20107;-62
2023/06/13 03:50:17;;;;;;;9.25;2.55;;;28.40;42.30;;;;;;5087013;28;20058;-59
2023/06/13 03:52:43;;;;;;;14.63;2.03;;;28.30;42.60;;;;;;5083389;28;20071;-63
2023/06/13 03:55:11;;;;;;;8.30;2.08;;;28.30;42.80;;;;;;5083915;28;20417;-61
2023/06/13 03:57:37;;;;;;;13.65;2.33;;;28.30;42.90;;;;;;5077585;28;20578;-59
2023/06/13 04:00:13;;;;;;;12.95;2.47;;;28.20;42.90;;;;;;5074992;28;20443;-57
2023/06/13 04:02:40;;;;;;;8.75;2.15;;;28.10;43.10;;;;;;5076449;28;20062;-61
2023/06/13 04:05:07;;;;;;;9.85;2.30;;;28.00;43.20;;;;;;5074245;28;20062;-57
2023/06/13 04:07:37;;;;;;;9.57;2.50;;;28.00;43.30;;;;;;5074495;28;20074;-58
2023/06/13 04:10:04;;;;;;;11.63;2.30;;;27.90;43.30;;;;;;5075778;28;20057;-57
2023/06/13 04:12:31;;;;;;;14.07;2.47;;;27.90;43.40;;;;;;5073789;28;20071;-59
2023/06/13 04:14:58;;;;;;;15.88;2.53;;;27.90;43.20;;;;;;5075195;28;20066;-56
2023/06/13 04:17:24;;;;;;;13.57;2.17;;;27.90;43.10;;;;;;5075460;28;20107;-55
2023/06/13 04:19:52;;;;;;;12.00;2.45;;;27.90;43.20;;;;;;5076023;28;20059;-57
2023/06/13 04:22:19;;;;;;;10.98;2.20;;;27.80;43.10;;;;;;5072813;28;20180;-58
2023/06/13 04:24:46;;;;;;;7.10;2.40;;;27.70;43.20;;;;;;5072904;28;21122;-60
2023/06/13 04:27:19;;;;;;;15.07;3.75;;;27.70;43.40;;;;;;5077725;28;20061;-59
2023/06/13 04:29:49;;;;;;;9.98;2.42;;;27.60;44.00;;;;;;5073330;28;20086;-57
2023/06/13 04:32:18;;;;;;;6.40;2.38;;;27.60;43.70;;;;;;5072778;28;20088;-54
2023/06/13 04:34:45;;;;;;;11.65;3.00;;;27.50;43.90;;;;;;5071406;28;20071;-55
2023/06/13 04:37:13;;;;;;;5.07;2.30;;;27.40;44.10;;;;;;5077832;28;20072;-57
2023/06/13 04:39:39;;;;;;;11.75;3.00;;;27.40;44.50;;;;;;5076168;28;20988;-56
2023/06/13 04:42:06;;;;;;;9.98;2.25;;;27.40;45.20;;;;;;5075247;28;20088;-59
2023/06/13 04:44:33;;;;;;;14.60;2.65;;;27.30;46.00;;;;;;5073112;28;20534;-57
2023/06/13 04:47:01;;;;;;;9.27;2.80;;;27.20;46.50;;;;;;5073617;28;20133;-57
2023/06/13 04:49:28;;;;;;;20.33;3.35;;;27.10;46.80;;;;;;5076344;28;20085;-56
2023/06/13 04:51:56;;;;;;;14.65;3.83;;;27.00;46.60;;;;;;5073936;28;20096;-58
2023/06/13 04:54:23;;;;;;;8.55;2.75;;;27.00;46.20;;;;;;5070606;28;20080;-58
2023/06/13 04:56:50;;;;;;;15.75;2.97;;;26.90;46.50;;;;;;5072647;28;20090;-56
2023/06/13 04:59:16;;;;;;;7.75;2.50;;;26.90;46.80;;;;;;5073805;28;20081;-55
2023/06/13 05:01:43;;;;;;;17.08;2.70;;;26.80;46.90;;;;;;5077122;28;20105;-55
2023/06/13 05:04:10;;;;;;;11.68;2.30;;;26.80;47.20;;;;;;5075466;28;20104;-60
2023/06/13 05:06:37;;;;;;;11.35;2.63;;;26.80;47.30;;;;;;5072115;28;20068;-57
2023/06/13 05:09:06;;;;;;;10.20;2.40;;;26.70;47.50;;;;;;5076131;28;20067;-58
2023/06/13 05:11:32;;;;;;;17.02;3.15;;;26.80;47.50;;;;;;5077897;28;20121;-58
2023/06/13 05:13:58;;;;;;;12.82;2.72;;;26.60;47.70;;;;;;5079558;28;20075;-59
2023/06/13 05:16:29;;;;;;;8.65;2.10;;;26.60;48.00;;;;;;5079232;28;20077;-56
2023/06/13 05:19:00;;;;;;;10.70;2.60;;;26.60;48.20;;;;;;5077943;28;20435;-56
2023/06/13 05:21:28;;;;;;;9.57;2.72;;;26.40;48.20;;;;;;5078160;28;20095;-56
2023/06/13 05:23:54;;;;;;;13.98;2.20;;;26.40;48.30;;;;;;5075031;28;20141;-55
2023/06/13 05:26:21;;;;;;;5.00;2.03;;;26.40;48.30;;;;;;5074646;28;20064;-57
2023/06/13 05:28:48;;;;;;;5.93;2.30;;;26.30;48.40;;;;;;5073556;28;20111;-57
2023/06/13 05:31:14;;;;;;;9.32;2.33;;;26.30;48.50;;;;;;5075096;28;20543;-56
2023/06/13 05:33:40;;;;;;;10.60;2.55;;;26.30;48.70;;;;;;5073556;28;20211;-56
2023/06/13 05:36:07;;;;;;;10.55;2.25;;;26.30;49.60;;;;;;5081483;28;20450;-55
2023/06/13 05:38:33;;;;;;;7.05;3.25;;;26.20;50.80;;;;;;5080665;28;20563;-54
2023/06/13 05:41:00;;;;;;;10.27;2.55;;;26.00;51.20;;;;;;5079227;28;20088;-56
2023/06/13 05:43:26;;;;;;;4.68;2.00;;;25.90;51.70;;;;;;5078293;28;20087;-58
2023/06/13 05:45:53;;;;;;;14.68;2.50;;;25.80;51.80;;;;;;5074471;28;20606;-57
2023/06/13 05:48:19;;;;;;;8.18;2.30;;;25.70;52.10;;;;;;5073954;28;20095;-56
2023/06/13 05:50:45;;;;;;;11.60;2.55;;;25.70;52.00;;;;;;5072119;28;20095;-57
2023/06/13 05:53:12;;;;;;;13.02;2.28;;;25.70;52.00;;;;;;5072947;28;20076;-55
2023/06/13 05:55:38;;;;;;;11.10;2.28;;;25.60;52.10;;;;;;5076061;28;20418;-59
2023/06/13 05:58:05;;;;;;;14.45;2.95;;;25.60;52.30;;;;;;5075470;28;20087;-59
2023/06/13 06:00:31;;;;;;;12.02;2.33;;;25.50;52.50;;;;;;5075237;28;20096;-56
2023/06/13 06:03:00;;;;;;;11.73;2.10;;;25.40;52.40;;;;;;5072835;28;20165;-55
2023/06/13 06:05:29;;;;;;;12.82;2.55;;;25.40;52.50;;;;;;5072451;28;20171;-56
2023/06/13 06:07:55;;;;;;;11.18;2.95;;;25.40;52.50;;;;;;5072781;28;20574;-55
2023/06/13 06:10:22;;;;;;;13.32;2.83;;;25.40;52.60;;;;;;5079447;28;20076;-57
2023/06/13 06:12:48;;;;;;;6.15;2.10;;;25.40;52.10;;;;;;5079465;28;20138;-58
2023/06/13 06:15:15;;;;;;;7.55;2.05;;;25.40;51.90;;;;;;5074197;28;20091;-55
2023/06/13 06:17:41;;;;;;;2.95;1.80;;;25.40;51.60;;;;;;5073992;28;20071;-54
2023/06/13 06:20:08;;;;;;;4.50;2.10;;;25.40;51.50;;;;;;5078573;28;20071;-57
2023/06/13 06:22:36;;;;;;;5.32;2.10;;;25.40;51.40;;;;;;5076112;28;20067;-57
2023/06/13 06:25:03;;;;;;;5.05;1.80;;;25.30;51.50;;;;;;5077497;28;20087;-54
2023/06/13 06:27:29;;;;;;;7.80;2.50;;;25.30;51.50;;;;;;5076991;28;20166;-55
2023/06/13 06:29:56;;;;;;;15.40;2.67;;;25.30;51.50;;;;;;5078372;28;20559;-57
2023/06/13 06:32:22;;;;;;;5.60;1.77;;;25.30;51.40;;;;;;5075497;28;20072;-59
2023/06/13 06:34:48;;;;;;;12.32;2.40;;;25.30;51.60;;;;;;5076902;28;20159;-56
2023/06/13 06:37:15;;;;;;;4.05;2.00;;;25.30;52.20;;;;;;5079235;28;20121;-60
2023/06/13 06:39:42;;;;;;;6.80;1.90;;;25.30;51.90;;;;;;5082213;28;20616;-59
2023/06/13 06:42:08;;;;;;;5.72;1.92;;;25.20;51.60;;;;;;5083816;28;20540;-59
2023/06/13 06:44:35;;;;;;;16.65;2.85;;;25.30;51.50;;;;;;5082731;28;20072;-58
2023/06/13 06:47:01;;;;;;;16.17;2.30;;;25.30;51.50;;;;;;5083744;28;20118;-58
2023/06/13 06:49:27;;;;;;;5.57;1.98;;;25.20;51.40;;;;;;5085716;28;20071;-55
2023/06/13 06:51:54;;;;;;;6.15;1.95;;;25.20;51.70;;;;;;5084353;28;20080;-56
2023/06/13 06:54:20;;;;;;;5.93;2.35;;;25.20;51.50;;;;;;5083727;28;20555;-58
2023/06/13 06:56:47;;;;;;;17.98;2.30;;;25.30;51.20;;;;;;5080124;28;20099;-54
2023/06/13 06:59:13;;;;;;;5.68;2.17;;;25.20;51.10;;;;;;5082524;28;20079;-59
2023/06/13 07:01:39;;;;;;;9.98;2.58;;;25.10;51.30;;;;;;5081828;28;20083;-58
2023/06/13 07:04:06;;;;;;;8.38;2.38;;;25.10;52.00;;;;;;5080534;28;20115;-52
2023/06/13 07:06:32;;;;;;;8.32;2.00;;;24.90;52.90;;;;;;5080555;28;20074;-57
2023/06/13 07:08:58;;;;;;;5.35;2.50;;;24.70;53.20;;;;;;5079151;28;20266;-57
2023/06/13 07:11:25;;;;;;;6.90;2.30;;;24.60;53.30;;;;;;5084505;28;20488;-54
2023/06/13 07:13:52;;;;;;;5.13;2.33;;;24.50;53.50;;;;;;5081039;28;20075;-55
2023/06/13 07:16:18;;;;;;;9.52;2.65;;;24.50;53.50;;;;;;5082154;28;20094;-55
2023/06/13 07:18:45;;;;;;;9.05;2.15;;;24.60;53.30;;;;;;5082088;28;20147;-53
2023/06/13 07:21:12;;;;;;;6.30;2.42;;;24.50;53.50;;;;;;5079389;28;20099;-56
2023/06/13 07:23:38;;;;;;;9.77;2.20;;;24.50;53.60;;;;;;5082149;28;20063;-59
2023/06/13 07:26:05;;;;;;;3.30;2.10;;;24.40;53.70;;;;;;5083893;28;20160;-55
2023/06/13 07:28:31;;;;;;;6.60;2.05;;;24.30;54.10;;;;;;5082651;28;20087;-57
2023/06/13 07:30:58;;;;;;;4.43;2.05;;;24.30;54.00;;;;;;5079786;28;20435;-56
2023/06/13 07:33:25;;;;;;;4.20;2.10;;;24.10;54.00;;;;;;5079482;28;20084;-53
2023/06/13 07:35:53;;;;;;;7.00;2.53;;;24.10;54.40;;;;;;5083442;28;20098;-55
2023/06/13 07:38:20;;;;;;;5.18;2.30;;;24.10;54.50;;;;;;5079554;28;20121;-57
2023/06/13 07:40:47;;;;;;;5.03;2.05;;;24.10;54.80;;;;;;5080427;28;20090;-56
2023/06/13 07:43:13;;;;;;;5.18;2.20;;;24.00;54.80;;;;;;5079203;28;20088;-57
2023/06/13 07:45:40;;;;;;;5.90;2.38;;;23.90;55.00;;;;;;5076417;28;20489;-56
2023/06/13 07:48:06;;;;;;;4.68;2.00;;;23.80;55.80;;;;;;5079793;28;20068;-57
2023/06/13 07:50:34;;;;;;;6.82;2.10;;;23.80;55.70;;;;;;5080285;28;20126;-56
2023/06/13 07:53:00;;;;;;;7.85;2.42;;;23.70;56.00;;;;;;5081402;28;20517;-56
2023/06/13 07:55:27;;;;;;;7.97;2.15;;;23.70;56.40;;;;;;5081156;28;20125;-57
2023/06/13 07:57:54;;;;;;;7.63;2.60;;;23.60;56.50;;;;;;5081392;28;20111;-57
2023/06/13 08:00:20;;;;;;;10.15;2.60;;;23.50;56.50;;;;;;5082040;28;20075;-57
2023/06/13 08:02:47;;;;;;;5.97;2.20;;;23.50;56.60;;;;;;5082256;28;20063;-54
2023/06/13 08:05:15;;;;;;;9.52;2.53;;;23.50;56.80;;;;;;5076622;28;20083;-61
2023/06/13 08:07:42;;;;;;;6.75;2.10;;;23.40;56.90;;;;;;5084188;28;20159;-61
2023/06/13 08:10:09;;;;;;;7.65;2.15;;;23.60;56.70;;;;;;5080889;28;20075;-61
2023/06/13 08:12:35;;;;;;;8.10;2.08;;;23.90;56.10;;;;;;5083191;28;20405;-61
2023/06/13 08:15:03;;;;;;;10.98;2.13;;;23.80;55.80;;;;;;5083647;28;20107;-59
2023/06/13 08:17:29;;;;;;;13.20;2.65;;;23.90;55.60;;;;;;5084401;28;20076;-60
2023/06/13 08:19:56;;;;;;;10.43;2.50;;;23.90;55.80;;;;;;5082214;28;20534;-60
2023/06/13 08:22:22;;;;;;;9.27;2.17;;;23.80;55.70;;;;;;5081378;28;20114;-57
2023/06/13 08:24:48;;;;;;;9.30;2.22;;;23.90;55.00;;;;;;5080117;28;20409;-59
2023/06/13 08:27:16;;;;;;;40.00;3.25;;;24.00;54.80;;;;;;5079329;28;20063;-59
2023/06/13 08:29:42;;;;;;;8.95;1.88;;;23.90;54.60;;;;;;5083224;28;20212;-59
2023/06/13 08:32:09;;;;;;;11.38;2.10;;;24.00;54.20;;;;;;5083848;28;20154;-59
2023/06/13 08:34:36;;;;;;;7.40;2.20;;;23.90;54.20;;;;;;5076754;28;20079;-60
2023/06/13 08:37:02;;;;;;;6.15;2.08;;;23.90;53.70;;;;;;5080082;28;20087;-61
2023/06/13 08:39:28;;;;;;;3.38;1.70;;;23.80;53.50;;;;;;5079300;28;20072;-59
2023/06/13 08:41:56;;;;;;;7.28;1.92;;;23.70;53.50;;;;;;5080779;28;20400;-59
2023/06/13 08:44:22;;;;;;;4.90;1.98;;;23.70;53.20;;;;;;5081243;28;20099;-58
2023/06/13 08:46:49;;;;;;;5.90;2.13;;;23.70;53.10;;;;;;5077266;28;20506;-59
2023/06/13 08:49:15;;;;;;;6.32;2.00;;;23.70;53.10;;;;;;5078775;28;20652;-60
2023/06/13 08:51:45;;;;;;;7.88;2.08;;;23.70;52.60;;;;;;5079197;28;20151;-60
2023/06/13 08:54:15;;;;;;;2.22;1.70;;;23.70;52.30;;;;;;5082889;28;20543;-58
2023/06/13 08:56:42;;;;;;;7.03;2.00;;;23.70;52.50;;;;;;5077645;28;20115;-60
2023/06/13 08:59:17;;;;;;;9.52;2.08;;;23.80;52.30;;;;;;5081565;28;20549;-59
2023/06/13 09:01:44;;;;;;;6.60;2.17;;;23.80;52.30;;;;;;5080773;28;20079;-58
2023/06/13 09:04:12;;;;;;;5.88;2.00;;;23.90;51.40;;;;;;5079748;28;20115;-60
2023/06/13 09:06:39;;;;;;;8.98;2.22;;;23.90;51.30;;;;;;5079350;28;20092;-58
2023/06/13 09:09:09;;;;;;;7.53;2.05;;;23.90;50.70;;;;;;5080976;28;20066;-59
2023/06/13 09:11:36;;;;;;;7.40;1.92;;;23.90;50.30;;;;;;5079776;28;20097;-58
2023/06/13 09:14:07;;;;;;;8.30;2.13;;;23.90;50.10;;;;;;5084135;28;20445;-58
2023/06/13 09:16:34;;;;;;;6.45;1.85;;;23.90;50.10;;;;;;5079495;28;20079;-60
2023/06/13 09:19:00;;;;;;;2.45;1.92;;;24.00;50.30;;;;;;5082309;28;20091;-58
2023/06/13 09:21:27;;;;;;;7.28;2.42;;;24.00;49.80;;;;;;5080832;28;20227;-59
2023/06/13 09:23:56;;;;;;;5.80;2.20;;;24.00;49.70;;;;;;5079298;28;20094;-59
2023/06/13 09:26:24;;;;;;;10.40;2.25;;;24.00;49.70;;;;;;5082370;28;20096;-60
2023/06/13 09:28:50;;;;;;;3.50;1.98;;;23.90;50.00;;;;;;5081444;28;20125;-59
2023/06/13 09:31:16;;;;;;;8.57;1.85;;;23.90;50.40;;;;;;5078170;28;20087;-58
2023/06/13 09:33:45;;;;;;;8.20;2.55;;;23.90;50.50;;;;;;5077930;28;20581;-58
2023/06/13 09:36:12;;;;;;;3.95;2.00;;;23.90;50.60;;;;;;5078160;28;20083;-58
2023/06/13 09:38:40;;;;;;;6.75;2.42;;;24.00;50.70;;;;;;5077275;28;20488;-60
2023/06/13 09:41:12;;;;;;;3.40;1.70;;;23.90;50.90;;;;;;5074998;28;20091;-58
2023/06/13 09:43:40;;;;;;;4.93;2.10;;;23.90;51.00;;;;;;5075765;28;20068;-58
2023/06/13 09:46:13;;;;;;;5.63;1.77;;;24.00;51.00;;;;;;5080255;28;20121;-57
2023/06/13 09:48:44;;;;;;;5.55;1.85;;;23.90;51.10;;;;;;5078585;28;20076;-58
2023/06/13 09:51:11;;;;;;;11.35;1.83;;;23.90;51.20;;;;;;5082825;28;20521;-60
2023/06/13 09:53:38;;;;;;;6.75;2.10;;;23.90;51.00;;;;;;5082992;28;20151;-59
2023/06/13 09:56:09;;;;;;;8.20;2.10;;;23.90;51.30;;;;;;5083153;28;20086;-59
2023/06/13 09:58:36;;;;;;;7.43;2.38;;;23.90;51.40;;;;;;5078483;28;20067;-59
2023/06/13 10:01:05;;;;;;;3.22;1.90;;;23.90;51.30;;;;;;5081959;28;20178;-59
2023/06/13 10:03:32;;;;;;;4.47;1.75;;;23.80;51.30;;;;;;5077646;28;20114;-58
2023/06/13 10:06:00;;;;;;;6.47;2.17;;;23.80;51.20;;;;;;5077286;28;20060;-60
2023/06/13 10:08:26;;;;;;;3.58;1.60;;;23.80;51.40;;;;;;5082608;28;20099;-61
2023/06/13 10:10:59;;;;;;;5.03;1.88;;;23.70;51.30;;;;;;5077529;28;20151;-60
2023/06/13 10:13:29;;;;;;;6.50;2.08;;;23.70;51.30;;;;;;5081105;28;20133;-59
2023/06/13 10:16:00;;;;;;;5.72;2.20;;;23.70;51.70;;;;;;5083613;28;20075;-59
2023/06/13 10:18:33;;;;;;;2.97;1.80;;;23.70;52.20;;;;;;5083315;28;20206;-59
2023/06/13 10:21:01;;;;;;;5.75;2.00;;;23.50;52.60;;;;;;5080486;28;20107;-56
2023/06/13 10:23:30;;;;;;;5.97;2.45;;;23.50;52.40;;;;;;5079083;28;20192;-60
2023/06/13 10:26:00;;;;;;;6.95;2.30;;;23.50;52.40;;;;;;5084308;28;20070;-59
2023/06/13 10:28:39;;;;;;;9.82;2.25;;;23.40;52.60;;;;;;5079653;28;20585;-59
2023/06/13 10:31:11;;;;;;;7.43;2.30;;;23.40;53.10;;;;;;5081050;28;20084;-58
2023/06/13 10:33:56;;;;;;;6.22;2.58;;;23.30;52.80;;;;;;5083804;28;21280;-59
2023/06/13 10:36:43;;;;;;;7.40;2.65;;;23.20;52.80;;;;;;5079604;28;20125;-59
2023/06/13 10:39:38;;;;;;;10.13;2.28;;;23.10;53.40;;;;;;5080361;28;20864;-58
2023/06/13 10:42:16;;;;;;;5.70;2.40;;;23.10;53.40;;;;;;5079227;28;20088;-59
2023/06/13 10:45:21;;;;;;;9.07;2.90;;;23.00;53.70;;;;;;5074641;28;20095;-58
2023/06/13 10:47:48;;;;;;;6.10;2.55;;;23.00;53.80;;;;;;5076209;28;20091;-59
2023/06/13 10:50:17;;;;;;;10.85;2.60;;;22.90;53.90;;;;;;5078946;28;20096;-61
2023/06/13 10:52:48;;;;;;;7.70;2.90;;;22.90;54.00;;;;;;5076914;28;20072;-58
2023/06/13 10:55:29;;;;;;;4.53;2.40;;;22.90;54.00;;;;;;5075778;28;20080;-58
2023/06/13 10:57:56;;;;;;;6.90;2.47;;;22.90;54.00;;;;;;5068380;28;20137;-60
2023/06/13 11:00:31;;;;;;;7.97;2.13;;;22.90;54.70;;;;;;5081957;28;20092;-58
2023/06/13 11:02:59;;;;;;;10.93;2.58;;;22.80;54.80;;;;;;5081101;28;20082;-58
2023/06/13 11:05:26;;;;;;;16.27;2.97;;;22.70;55.10;;;;;;5081365;28;20067;-57
2023/06/13 11:07:58;;;;;;;8.50;2.63;;;22.80;54.40;;;;;;5062680;28;20072;-60
2023/06/13 11:10:25;;;;;;;8.48;2.75;;;22.60;54.60;;;;;;5079918;28;20162;-59
2023/06/13 11:12:54;;;;;;;7.95;2.78;;;22.70;55.30;;;;;;5077421;28;20075;-56
2023/06/13 11:15:21;;;;;;;9.85;3.08;;;22.60;55.00;;;;;;5081244;28;20064;-64
2023/06/13 11:18:09;;;;;;;13.32;3.20;;;22.50;55.70;;;;;;5078788;28;20110;-59
2023/06/13 11:20:57;;;;;;;8.55;3.20;;;22.50;54.90;;;;;;5081829;28;20479;-59
2023/06/13 11:23:23;;;;;;;12.32;3.20;;;22.60;55.30;;;;;;5079595;28;20571;-58
2023/06/13 11:25:51;;;;;;;10.35;3.05;;;22.50;55.00;;;;;;5083562;28;20094;-59
2023/06/13 11:28:21;;;;;;;9.15;2.95;;;22.50;54.90;;;;;;5083763;28;20091;-58
2023/06/13 11:30:47;;;;;;;10.65;3.30;;;22.40;55.90;;;;;;5084118;28;20095;-58
2023/06/13 11:33:16;;;;;;;8.65;3.08;;;22.40;55.80;;;;;;5081089;28;20466;-59
2023/06/13 11:35:49;;;;;;;6.20;2.55;;;22.40;56.30;;;;;;5086869;28;20098;-60
2023/06/13 11:38:24;;;;;;;9.40;2.50;;;22.30;56.40;;;;;;5084201;28;20084;-60
2023/06/13 11:40:59;;;;;;;10.98;2.60;;;22.30;55.90;;;;;;5083872;28;20091;-58
2023/06/13 11:43:30;;;;;;;10.02;2.38;;;22.30;56.60;;;;;;5083987;28;20067;-61
2023/06/13 11:46:04;;;;;;;9.40;3.20;;;22.30;56.40;;;;;;5083243;28;20139;-58
2023/06/13 11:48:31;;;;;;;9.95;4.75;;;22.20;56.50;;;;;;5082050;28;20079;-58
2023/06/13 11:51:14;;;;;;;17.77;5.40;;;22.30;56.70;;;;;;5080686;28;20095;-60
2023/06/13 11:53:57;;;;;;;14.73;5.72;;;22.30;56.40;;;;;;5079843;28;20068;-59
2023/06/13 11:56:25;;;;;;;14.02;5.13;;;22.30;56.80;;;;;;5083001;28;20099;-58
2023/06/13 11:58:53;;;;;;;10.02;4.55;;;22.20;56.50;;;;;;5081832;28;20080;-59
2023/06/13 12:01:23;;;;;;;9.25;3.20;;;22.20;56.90;;;;;;5080763;28;20087;-61
2023/06/13 12:03:49;;;;;;;5.30;3.13;;;22.10;56.90;;;;;;5083138;28;20151;-59
2023/06/13 12:06:17;;;;;;;7.65;3.40;;;22.10;57.50;;;;;;5085755;28;20074;-60
2023/06/13 12:08:45;;;;;;;7.60;3.30;;;22.10;57.30;;;;;;5080277;28;20066;-56
2023/06/13 12:11:15;;;;;;;14.52;3.10;;;22.10;57.20;;;;;;5082020;28;20639;-58
2023/06/13 12:13:42;;;;;;;10.57;4.03;;;22.00;57.10;;;;;;5082877;28;20083;-58
2023/06/13 12:16:08;;;;;;;14.57;4.00;;;21.90;57.10;;;;;;5079453;28;20223;-55
2023/06/13 12:18:34;;;;;;;17.15;4.68;;;21.90;57.30;;;;;;5084847;28;20080;-58
2023/06/13 12:21:01;;;;;;;16.40;5.10;;;22.00;58.50;;;;;;5083419;28;20514;-56
2023/06/13 12:23:28;;;;;;;37.85;6.88;;;22.00;57.80;;;;;;5085308;28;20084;-59
2023/06/13 12:25:55;;;;;;;28.83;6.35;;;21.90;57.80;;;;;;5078428;28;20081;-58
2023/06/13 12:28:22;;;;;;;26.50;6.80;;;21.90;58.20;;;;;;5083273;28;20067;-60
2023/06/13 12:30:49;;;;;;;33.25;7.68;;;21.80;58.30;;;;;;5080051;28;20097;-56
2023/06/13 12:33:19;;;;;;;31.95;7.10;;;21.90;58.60;;;;;;5081283;28;20080;-59
2023/06/13 12:35:52;;;;;;;55.47;9.90;;;21.80;58.70;;;;;;5080820;28;20110;-59
2023/06/13 12:38:29;;;;;;;39.22;8.38;;;21.80;58.90;;;;;;5081347;28;20577;-59
2023/06/13 12:40:56;;;;;;;34.35;7.57;;;21.80;59.00;;;;;;5083289;28;20088;-58
2023/06/13 12:43:24;;;;;;;29.75;8.02;;;21.80;59.70;;;;;;5079213;28;20156;-59
2023/06/13 12:45:52;;;;;;;30.67;7.75;;;21.80;60.00;;;;;;5081318;28;20965;-59
2023/06/13 12:48:20;;;;;;;31.08;8.57;;;21.80;60.60;;;;;;5080306;28;20086;-59
2023/06/13 12:50:47;;;;;;;36.70;8.55;;;21.80;60.70;;;;;;5081944;28;20130;-58